Wind From: 11-12-2017 07:30 Until: 12-12-2017 06:00 warning for: Wind Level: Orange info button

Power and phone distribution networks may be disrupted for relatively long periods., Roofs and chimneys can be damaged. , Tree branches may break. , Vehicles can be deported. , Traffic may be disrupted, particularly on secondary roads in forest areas. Limit your trips. , Limit your speed in highway driving, especially if you drive a vehicle or hitch sensitive to wind. , Do not go for walks in forests or along the coast., In town, be vigilant against possible falling objects., Do not work on roofs and do not touch any electrical line fallen on the ground., Store or secure sensitive objects to wind or likely to be damaged., Always install power generators outside buildings. 


Meteo18 Weather Cam more information Meteo18 Weather Cam


Thunder radar more information blitzortung!


Rain radar more information rain snow radar


Visit our other weather sites:

Template documentation
and downloads

And another site



Weather Underground History page Text

Daily Summary for February 25, 2017 Units:  Metric    English   Both
« Previous Day
Next Day »
Daily Weekly Monthly Yearly Custom
  High: Low: Average:
Temperature: 10.4 °C -2.2 °C 4.1 °C
Dew Point: 2.8 °C -3.0 °C 0.1 °C
Humidity: 95 % 50 % 77 %
Wind Speed: 12.9 km/h 0.0 km/h 1.5 km/h
Wind Gust: 14.5 km/h - -
Wind:- - SSW
Pressure: 1024.3 hPa 1019.5 hPa -
Precipitation: 0.0 mm    
Historical Graphs
 
 
Tabular Data for February 25, 2017
Time Temperature Dew Point Pressure Wind Wind Speed Wind Gust Humidity Rainfall Rate (Hourly)
00:02 2.5 °C -0.1 °C 1023.6 hPa Calm   1.6 km/h 83 % 0.0 mm
00:12 2.5 °C -0.3 °C 1023.2 hPa Calm   1.6 km/h 82 % 0.0 mm
00:17 2.1 °C -0.5 °C 1023.2 hPa WNW 1.6 km/h 1.6 km/h 83 % 0.0 mm
00:22 1.8 °C -0.6 °C 1023.2 hPa Calm   1.6 km/h 84 % 0.0 mm
00:27 1.6 °C -0.6 °C 1023.2 hPa East 1.6 km/h 1.6 km/h 85 % 0.0 mm
00:32 1.5 °C -0.4 °C 1023.2 hPa Calm   3.2 km/h 87 % 0.0 mm
00:42 1.7 °C -0.6 °C 1023.2 hPa Calm   3.2 km/h 85 % 0.0 mm
00:47 1.5 °C -0.7 °C 1023.2 hPa Calm   3.2 km/h 85 % 0.0 mm
00:57 1.3 °C -0.6 °C 1023.2 hPa Calm   1.6 km/h 87 % 0.0 mm
01:02 1.6 °C -0.5 °C 1023.2 hPa Calm   1.6 km/h 86 % 0.0 mm
01:07 1.4 °C -0.7 °C 1023.2 hPa Calm   1.6 km/h 86 % 0.0 mm
01:12 1.2 °C -1.0 °C 1023.2 hPa WNW 1.6 km/h 1.6 km/h 85 % 0.0 mm
01:17 0.8 °C -1.1 °C 1023.2 hPa West 1.6 km/h 1.6 km/h 87 % 0.0 mm
01:22 0.7 °C -1.1 °C 1023.2 hPa WNW 1.6 km/h 1.6 km/h 88 % 0.0 mm
01:27 0.6 °C -1.2 °C 1023.6 hPa WNW 1.6 km/h 1.6 km/h 88 % 0.0 mm
01:32 0.6 °C -1.0 °C 1023.6 hPa WNW 1.6 km/h 1.6 km/h 89 % 0.0 mm
01:37 0.4 °C -1.2 °C 1023.6 hPa Calm   1.6 km/h 89 % 0.0 mm
01:42 0.7 °C -0.9 °C 1023.6 hPa Calm   1.6 km/h 89 % 0.0 mm
01:47 0.8 °C -1.0 °C 1023.6 hPa Calm   1.6 km/h 88 % 0.0 mm
01:52 0.8 °C -1.0 °C 1023.6 hPa Calm   1.6 km/h 88 % 0.0 mm
01:57 1.0 °C -0.8 °C 1023.6 hPa Calm     88 % 0.0 mm
02:02 1.1 °C -0.8 °C 1023.2 hPa Calm     87 % 0.0 mm
02:12 0.8 °C -1.1 °C 1023.2 hPa Calm     87 % 0.0 mm
02:17 0.7 °C -1.1 °C 1023.2 hPa Calm     88 % 0.0 mm
02:22 0.7 °C -1.2 °C 1023.2 hPa Calm     87 % 0.0 mm
02:32 0.2 °C -1.4 °C 1023.2 hPa Calm     89 % 0.0 mm
02:42 0.1 °C -1.3 °C 1023.2 hPa Calm     90 % 0.0 mm
02:47 0.1 °C -1.3 °C 1023.2 hPa Calm     90 % 0.0 mm
02:52 0.1 °C -1.3 °C 1023.2 hPa Calm     90 % 0.0 mm
02:57 0.0 °C -1.4 °C 1023.2 hPa Calm     90 % 0.0 mm
03:02 -0.2 °C -1.6 °C 1023.2 hPa Calm     90 % 0.0 mm
03:07 -0.5 °C -1.9 °C 1023.2 hPa Calm     90 % 0.0 mm
03:12 -0.7 °C -2.0 °C 1023.2 hPa Calm     91 % 0.0 mm
03:17 -0.8 °C -2.1 °C 1023.2 hPa Calm     91 % 0.0 mm
03:22 -0.6 °C -1.6 °C 1023.2 hPa Calm     93 % 0.0 mm
03:32 -0.6 °C -1.9 °C 1023.2 hPa Calm     91 % 0.0 mm
03:42 -0.8 °C -1.9 °C 1022.9 hPa Calm     92 % 0.0 mm
03:47 -0.8 °C -1.9 °C 1022.9 hPa Calm     92 % 0.0 mm
03:52 -0.8 °C -1.9 °C 1022.9 hPa Calm     92 % 0.0 mm
04:02 -0.8 °C -1.8 °C 1022.9 hPa Calm     93 % 0.0 mm
04:07 -0.7 °C -1.8 °C 1022.6 hPa Calm     92 % 0.0 mm
04:12 -0.7 °C -1.8 °C 1022.6 hPa Calm     92 % 0.0 mm
04:17 -0.7 °C -1.8 °C 1022.6 hPa Calm     92 % 0.0 mm
04:22 -0.7 °C -1.8 °C 1022.6 hPa Calm     92 % 0.0 mm
04:32 -0.9 °C -2.0 °C 1022.6 hPa Calm     92 % 0.0 mm
04:37 -1.1 °C -2.2 °C 1022.6 hPa Calm     92 % 0.0 mm
04:42 -1.2 °C -2.2 °C 1022.6 hPa Calm     93 % 0.0 mm
04:47 -1.2 °C -2.2 °C 1022.6 hPa Calm     93 % 0.0 mm
04:52 -1.2 °C -2.2 °C 1022.9 hPa Calm     93 % 0.0 mm
04:57 -1.3 °C -2.4 °C 1022.9 hPa Calm     92 % 0.0 mm
05:02 -1.4 °C -2.4 °C 1022.9 hPa Calm     93 % 0.0 mm
05:12 -1.4 °C -2.2 °C 1022.9 hPa Calm     94 % 0.0 mm
05:17 -1.3 °C -2.1 °C 1022.9 hPa Calm     94 % 0.0 mm
05:22 -1.2 °C -2.0 °C 1022.9 hPa Calm     94 % 0.0 mm
05:32 -1.5 °C -2.5 °C 1022.9 hPa Calm     93 % 0.0 mm
05:37 -1.7 °C -2.7 °C 1022.9 hPa Calm     93 % 0.0 mm
05:42 -1.6 °C -2.4 °C 1022.9 hPa Calm     94 % 0.0 mm
05:47 -1.6 °C -2.4 °C 1022.9 hPa Calm     94 % 0.0 mm
05:52 -1.5 °C -2.3 °C 1022.9 hPa Calm     94 % 0.0 mm
06:02 -1.6 °C -2.4 °C 1022.9 hPa Calm     94 % 0.0 mm
06:12 -1.7 °C -2.5 °C 1022.9 hPa Calm     94 % 0.0 mm
06:17 -1.6 °C -2.3 °C 1022.9 hPa Calm     95 % 0.0 mm
06:22 -1.4 °C -2.1 °C 1023.2 hPa Calm     95 % 0.0 mm
06:32 -1.4 °C -2.2 °C 1023.2 hPa Calm     94 % 0.0 mm
06:42 -1.5 °C -2.3 °C 1023.2 hPa Calm     94 % 0.0 mm
06:47 -1.6 °C -2.6 °C 1023.2 hPa Calm     93 % 0.0 mm
06:52 -1.6 °C -2.6 °C 1023.2 hPa Calm     93 % 0.0 mm
07:02 -1.9 °C -2.9 °C 1023.2 hPa Calm     93 % 0.0 mm
07:12 -2.1 °C -2.9 °C 1022.9 hPa Calm     94 % 0.0 mm
07:17 -2.1 °C -2.9 °C 1023.2 hPa Calm     94 % 0.0 mm
07:22 -2.2 °C -3.0 °C 1023.2 hPa Calm     94 % 0.0 mm
07:32 -2.2 °C -2.9 °C 1023.2 hPa Calm     95 % 0.0 mm
07:37 -2.2 °C -3.0 °C 1023.2 hPa Calm     94 % 0.0 mm
07:42 -2.2 °C -3.0 °C 1023.6 hPa Calm     94 % 0.0 mm
07:47 -2.1 °C -2.8 °C 1023.6 hPa Calm     95 % 0.0 mm
07:52 -2.1 °C -2.8 °C 1023.6 hPa Calm     95 % 0.0 mm
07:57 -2.2 °C -3.0 °C 1023.6 hPa Calm     94 % 0.0 mm
08:02 -2.2 °C -2.9 °C 1023.6 hPa Calm     95 % 0.0 mm
08:12 -2.1 °C -2.8 °C 1023.9 hPa Calm     95 % 0.0 mm
08:17 -2.0 °C -2.7 °C 1023.9 hPa Calm     95 % 0.0 mm
08:22 -1.6 °C -2.3 °C 1023.6 hPa Calm     95 % 0.0 mm
08:32 -0.9 °C -1.6 °C 1023.9 hPa Calm     95 % 0.0 mm
08:37 -0.7 °C -1.4 °C 1023.6 hPa Calm     95 % 0.0 mm
08:42 -0.6 °C -1.6 °C 1023.9 hPa Calm     93 % 0.0 mm
08:47 -0.5 °C -1.5 °C 1023.9 hPa Calm     93 % 0.0 mm
08:52 -0.3 °C -1.3 °C 1023.9 hPa Calm     93 % 0.0 mm
09:02 0.0 °C -1.0 °C 1023.9 hPa Calm     93 % 0.0 mm
09:12 1.4 °C 0.2 °C 1023.9 hPa Calm     92 % 0.0 mm
09:17 2.2 °C 1.2 °C 1023.9 hPa Calm     93 % 0.0 mm
09:22 2.3 °C 0.5 °C 1023.9 hPa Calm     88 % 0.0 mm
09:32 3.1 °C 0.8 °C 1023.9 hPa Calm     85 % 0.0 mm
09:37 3.1 °C 0.5 °C 1023.9 hPa Calm     83 % 0.0 mm
09:42 3.5 °C 1.1 °C 1023.9 hPa Calm     84 % 0.0 mm
09:47 4.3 °C 1.8 °C 1024.3 hPa Calm     84 % 0.0 mm
09:52 4.6 °C 1.4 °C 1024.3 hPa Calm     80 % 0.0 mm
09:57 4.9 °C 1.4 °C 1024.3 hPa Calm     78 % 0.0 mm
10:02 4.2 °C 0.7 °C 1024.3 hPa Calm     78 % 0.0 mm
10:07 4.1 °C 1.3 °C 1024.3 hPa Calm     82 % 0.0 mm
10:12 4.2 °C 1.2 °C 1024.3 hPa Calm     81 % 0.0 mm
10:17 4.2 °C 1.1 °C 1024.3 hPa Calm     80 % 0.0 mm
10:22 3.8 °C 0.8 °C 1024.3 hPa Calm     81 % 0.0 mm
10:32 3.9 °C 1.3 °C 1024.3 hPa SSW 1.6 km/h 3.2 km/h 83 % 0.0 mm
10:37 4.2 °C 1.7 °C 1024.3 hPa SSW 1.6 km/h 3.2 km/h 84 % 0.0 mm
10:42 4.2 °C 1.6 °C 1024.3 hPa Calm   4.8 km/h 83 % 0.0 mm
10:47 4.4 °C 1.8 °C 1024.3 hPa SSE 3.2 km/h 4.8 km/h 83 % 0.0 mm
10:52 4.5 °C 1.9 °C 1024.3 hPa Calm   6.4 km/h 83 % 0.0 mm
10:57 4.7 °C 2.1 °C 1024.3 hPa SSW 4.8 km/h 6.4 km/h 83 % 0.0 mm
11:02 4.8 °C 2.2 °C 1024.3 hPa South 3.2 km/h 6.4 km/h 83 % 0.0 mm
11:07 5.1 °C 2.5 °C 1024.3 hPa SE 3.2 km/h 6.4 km/h 83 % 0.0 mm
11:12 5.3 °C 2.8 °C 1024.3 hPa South 4.8 km/h 6.4 km/h 84 % 0.0 mm
11:17 5.4 °C 2.4 °C 1024.3 hPa SW 4.8 km/h 6.4 km/h 81 % 0.0 mm
11:22 5.5 °C 2.7 °C 1024.3 hPa Calm   9.7 km/h 82 % 0.0 mm
11:27 5.8 °C 2.8 °C 1024.3 hPa SSW 3.2 km/h 9.7 km/h 81 % 0.0 mm
11:32 5.9 °C 2.7 °C 1024.3 hPa SSW 6.4 km/h 9.7 km/h 80 % 0.0 mm
11:42 6.2 °C 2.6 °C 1024.3 hPa SSW 8.0 km/h 9.7 km/h 78 % 0.0 mm
11:47 6.2 °C 2.5 °C 1024.3 hPa SSW 9.7 km/h 9.7 km/h 77 % 0.0 mm
11:52 6.3 °C 2.4 °C 1024.3 hPa South 3.2 km/h 11.3 km/h 76 % 0.0 mm
11:57 6.4 °C 2.5 °C 1024.3 hPa SW 6.4 km/h 11.3 km/h 76 % 0.0 mm
12:02 6.6 °C 2.7 °C 1024.3 hPa SW 6.4 km/h 11.3 km/h 76 % 0.0 mm
12:12 6.8 °C 2.5 °C 1024.3 hPa SW 6.4 km/h 9.7 km/h 74 % 0.0 mm
12:17 6.9 °C 2.6 °C 1024.3 hPa WSW 4.8 km/h 9.7 km/h 74 % 0.0 mm
12:22 7.1 °C 2.6 °C 1024.3 hPa WSW 6.4 km/h 11.3 km/h 73 % 0.0 mm
12:27 7.2 °C 2.7 °C 1024.3 hPa SSW 4.8 km/h 11.3 km/h 73 % 0.0 mm
12:32 7.4 °C 2.3 °C 1024.3 hPa SSW 8.0 km/h 11.3 km/h 70 % 0.0 mm
12:42 7.7 °C 2.6 °C 1023.9 hPa South 6.4 km/h 11.3 km/h 70 % 0.0 mm
12:47 7.8 °C 2.5 °C 1023.9 hPa SW 3.2 km/h 11.3 km/h 69 % 0.0 mm
12:57 8.0 °C 2.2 °C 1023.9 hPa Calm   9.7 km/h 67 % 0.0 mm
13:02 8.2 °C 2.0 °C 1023.6 hPa Calm   9.7 km/h 65 % 0.0 mm
13:12 8.2 °C 2.0 °C 1023.6 hPa SSE 4.8 km/h 9.7 km/h 65 % 0.0 mm
13:17 8.4 °C 2.2 °C 1023.2 hPa SSW 8.0 km/h 9.7 km/h 65 % 0.0 mm
13:22 8.6 °C 2.2 °C 1023.2 hPa SSW 3.2 km/h 9.7 km/h 64 % 0.0 mm
13:32 8.8 °C 2.6 °C 1023.2 hPa WSW 8.0 km/h 9.7 km/h 65 % 0.0 mm
13:37 8.6 °C 1.7 °C 1022.9 hPa SSE 3.2 km/h 11.3 km/h 62 % 0.0 mm
13:42 8.7 °C 1.8 °C 1022.9 hPa SSW 3.2 km/h 11.3 km/h 62 % 0.0 mm
13:47 8.9 °C 1.3 °C 1022.9 hPa SSW 8.0 km/h 11.3 km/h 59 % 0.0 mm
13:52 8.9 °C 1.6 °C 1022.9 hPa South 3.2 km/h 11.3 km/h 60 % 0.0 mm
13:57 9.0 °C 0.7 °C 1022.9 hPa SSW 3.2 km/h 9.7 km/h 56 % 0.0 mm
14:02 9.1 °C 1.0 °C 1022.6 hPa SSE 6.4 km/h 9.7 km/h 57 % 0.0 mm
14:12 9.1 °C 1.5 °C 1022.2 hPa SSW 1.6 km/h 11.3 km/h 59 % 0.0 mm
14:17 9.1 °C 1.5 °C 1022.2 hPa SW 6.4 km/h 11.3 km/h 59 % 0.0 mm
14:22 9.2 °C 2.1 °C 1022.2 hPa Calm   11.3 km/h 61 % 0.0 mm
14:27 9.3 °C 1.5 °C 1021.9 hPa SW 6.4 km/h 8.0 km/h 58 % 0.0 mm
14:32 9.3 °C 1.9 °C 1021.9 hPa SSW 1.6 km/h 8.0 km/h 60 % 0.0 mm
14:37 9.7 °C 1.8 °C 1021.9 hPa ESE 3.2 km/h 8.0 km/h 58 % 0.0 mm
14:42 9.4 °C 1.3 °C 1021.9 hPa SE 1.6 km/h 8.0 km/h 57 % 0.0 mm
14:52 9.6 °C 1.0 °C 1021.6 hPa SW 6.4 km/h 8.0 km/h 55 % 0.0 mm
14:57 9.4 °C 1.1 °C 1021.6 hPa West 1.6 km/h 9.7 km/h 56 % 0.0 mm
15:02 9.6 °C 1.0 °C 1021.6 hPa SSE 6.4 km/h 9.7 km/h 55 % 0.0 mm
15:07 9.7 °C 1.8 °C 1021.6 hPa South 4.8 km/h 12.9 km/h 58 % 0.0 mm
15:12 9.7 °C 1.1 °C 1021.6 hPa SW 6.4 km/h 12.9 km/h 55 % 0.0 mm
15:17 9.7 °C 1.1 °C 1021.6 hPa South 4.8 km/h 12.9 km/h 55 % 0.0 mm
15:22 9.7 °C 0.8 °C 1021.6 hPa SW 6.4 km/h 12.9 km/h 54 % 0.0 mm
15:27 9.7 °C 1.1 °C 1021.2 hPa SW 6.4 km/h 11.3 km/h 55 % 0.0 mm
15:32 9.6 °C 0.5 °C 1021.6 hPa South 1.6 km/h 11.3 km/h 53 % 0.0 mm
15:37 9.8 °C 1.4 °C 1021.2 hPa SW 6.4 km/h 11.3 km/h 56 % 0.0 mm
15:42 9.7 °C 0.6 °C 1021.2 hPa SSW 1.6 km/h 11.3 km/h 53 % 0.0 mm
15:52 9.9 °C 0.5 °C 1020.9 hPa SSW 1.6 km/h 11.3 km/h 52 % 0.0 mm
15:57 10.1 °C 0.7 °C 1020.9 hPa SW 6.4 km/h 6.4 km/h 52 % 0.0 mm
16:02 10.1 °C 0.7 °C 1020.9 hPa SSW 3.2 km/h 6.4 km/h 52 % 0.0 mm
16:12 10.2 °C 0.5 °C 1020.9 hPa SW 3.2 km/h 6.4 km/h 51 % 0.0 mm
16:17 10.3 °C 0.3 °C 1020.9 hPa SSW 6.4 km/h 11.3 km/h 50 % 0.0 mm
16:22 10.3 °C 0.6 °C 1020.9 hPa South 4.8 km/h 11.3 km/h 51 % 0.0 mm
16:32 10.4 °C 0.4 °C 1020.5 hPa SW 12.9 km/h 12.9 km/h 50 % 0.0 mm
16:37 10.3 °C 0.6 °C 1020.5 hPa SSW 6.4 km/h 14.5 km/h 51 % 0.0 mm
16:42 10.3 °C 1.7 °C 1020.5 hPa SW 8.0 km/h 14.5 km/h 55 % 0.0 mm
16:47 10.2 °C 0.2 °C 1020.5 hPa SW 4.8 km/h 14.5 km/h 50 % 0.0 mm
16:52 10.3 °C 0.9 °C 1020.5 hPa SSE 6.4 km/h 14.5 km/h 52 % 0.0 mm
16:57 10.3 °C 0.9 °C 1020.5 hPa SW 8.0 km/h 11.3 km/h 52 % 0.0 mm
17:02 10.2 °C 1.0 °C 1020.5 hPa SSW 4.8 km/h 11.3 km/h 53 % 0.0 mm
17:12 10.2 °C 1.6 °C 1020.5 hPa SSW 6.4 km/h 9.7 km/h 55 % 0.0 mm
17:17 10.2 °C 2.1 °C 1020.2 hPa South 1.6 km/h 9.7 km/h 57 % 0.0 mm
17:22 10.2 °C 2.1 °C 1020.2 hPa SSW 3.2 km/h 9.7 km/h 57 % 0.0 mm
17:32 9.9 °C 1.8 °C 1020.2 hPa South 4.8 km/h 8.0 km/h 57 % 0.0 mm
17:42 9.9 °C 2.3 °C 1019.9 hPa South 3.2 km/h 8.0 km/h 59 % 0.0 mm
17:47 9.8 °C 1.9 °C 1019.9 hPa SSE 3.2 km/h 6.4 km/h 58 % 0.0 mm
17:52 9.6 °C 1.5 °C 1019.9 hPa South 1.6 km/h 6.4 km/h 57 % 0.0 mm
18:02 9.1 °C 1.5 °C 1019.9 hPa SSE 1.6 km/h 6.4 km/h 59 % 0.0 mm
18:12 8.7 °C 1.6 °C 1019.9 hPa SSW 1.6 km/h 6.4 km/h 61 % 0.0 mm
18:17 8.4 °C 2.0 °C 1019.9 hPa SSW 1.6 km/h 4.8 km/h 64 % 0.0 mm
18:22 8.1 °C 2.1 °C 1020.2 hPa SW 1.6 km/h 4.8 km/h 66 % 0.0 mm
18:32 7.9 °C 1.7 °C 1020.2 hPa SW 1.6 km/h 3.2 km/h 65 % 0.0 mm
18:37 7.9 °C 1.3 °C 1020.5 hPa SW 3.2 km/h 3.2 km/h 63 % 0.0 mm
18:42 8.1 °C 1.3 °C 1020.5 hPa WSW 1.6 km/h 4.8 km/h 62 % 0.0 mm
18:52 7.9 °C 1.3 °C 1020.2 hPa SW 1.6 km/h 4.8 km/h 63 % 0.0 mm
18:57 7.8 °C 1.2 °C 1020.2 hPa Calm   3.2 km/h 63 % 0.0 mm
19:02 7.7 °C 1.1 °C 1020.5 hPa Calm   3.2 km/h 63 % 0.0 mm
19:12 7.6 °C 1.0 °C 1020.5 hPa Calm   3.2 km/h 63 % 0.0 mm
19:17 7.4 °C 1.0 °C 1020.5 hPa Calm   1.6 km/h 64 % 0.0 mm
19:22 7.3 °C 0.9 °C 1020.5 hPa Calm   1.6 km/h 64 % 0.0 mm
19:32 6.9 °C 1.2 °C 1020.2 hPa Calm   1.6 km/h 67 % 0.0 mm
19:37 6.6 °C 1.1 °C 1020.2 hPa Calm     68 % 0.0 mm
19:42 6.4 °C 1.3 °C 1020.2 hPa Calm     70 % 0.0 mm
19:47 6.2 °C 1.3 °C 1020.2 hPa Calm     71 % 0.0 mm
19:52 6.1 °C 1.4 °C 1020.2 hPa Calm     72 % 0.0 mm
19:57 5.9 °C 1.4 °C 1020.2 hPa Calm     73 % 0.0 mm
20:02 5.8 °C 1.5 °C 1020.2 hPa Calm     74 % 0.0 mm
20:07 5.8 °C 1.3 °C 1020.2 hPa Calm     73 % 0.0 mm
20:12 5.9 °C 1.2 °C 1020.2 hPa Calm     72 % 0.0 mm
20:17 5.8 °C 1.3 °C 1020.2 hPa Calm     73 % 0.0 mm
20:22 5.7 °C 1.0 °C 1020.2 hPa Calm     72 % 0.0 mm
20:27 5.6 °C 1.0 °C 1020.2 hPa Calm     72 % 0.0 mm
20:32 5.6 °C 1.1 °C 1020.2 hPa Calm     73 % 0.0 mm
20:37 5.2 °C 0.8 °C 1020.2 hPa Calm     73 % 0.0 mm
20:42 5.1 °C 0.7 °C 1020.2 hPa Calm     73 % 0.0 mm
20:47 5.3 °C 0.7 °C 1020.2 hPa Calm     72 % 0.0 mm
20:52 5.4 °C 0.8 °C 1019.9 hPa Calm     72 % 0.0 mm
20:57 5.4 °C 0.8 °C 1019.9 hPa Calm     72 % 0.0 mm
21:02 5.3 °C 1.0 °C 1019.9 hPa Calm     74 % 0.0 mm
21:12 4.7 °C 0.6 °C 1019.9 hPa Calm     75 % 0.0 mm
21:17 4.4 °C 0.7 °C 1019.9 hPa Calm     77 % 0.0 mm
21:27 4.5 °C 0.6 °C 1019.9 hPa Calm     76 % 0.0 mm
21:32 4.6 °C 0.6 °C 1019.9 hPa Calm     75 % 0.0 mm
21:37 4.6 °C 0.6 °C 1019.9 hPa Calm     75 % 0.0 mm
21:42 4.8 °C 0.6 °C 1020.2 hPa Calm     74 % 0.0 mm
21:47 4.8 °C 0.6 °C 1019.9 hPa Calm     74 % 0.0 mm
21:52 4.8 °C 0.6 °C 1019.9 hPa Calm     74 % 0.0 mm
21:57 4.8 °C 0.4 °C 1019.9 hPa Calm     73 % 0.0 mm
22:02 4.8 °C 0.2 °C 1019.9 hPa Calm     72 % 0.0 mm
22:07 4.6 °C 0.2 °C 1019.9 hPa Calm     73 % 0.0 mm
22:12 4.6 °C 0.4 °C 1019.9 hPa Calm     74 % 0.0 mm
22:17 4.7 °C 0.3 °C 1019.9 hPa Calm   1.6 km/h 73 % 0.0 mm
22:22 4.4 °C 0.2 °C 1019.9 hPa Calm   1.6 km/h 74 % 0.0 mm
22:32 3.9 °C -0.1 °C 1019.9 hPa Calm   1.6 km/h 75 % 0.0 mm
22:42 4.2 °C 0.0 °C 1019.9 hPa Calm   1.6 km/h 74 % 0.0 mm
22:47 4.1 °C -0.1 °C 1019.9 hPa Calm   1.6 km/h 74 % 0.0 mm
22:52 4.0 °C 0.0 °C 1019.9 hPa Calm   1.6 km/h 75 % 0.0 mm
23:02 3.9 °C 0.1 °C 1019.5 hPa Calm   1.6 km/h 76 % 0.0 mm
23:07 4.2 °C 0.0 °C 1019.5 hPa Calm   1.6 km/h 74 % 0.0 mm
23:12 4.3 °C -0.1 °C 1019.5 hPa Calm   1.6 km/h 73 % 0.0 mm
23:17 4.0 °C -0.2 °C 1019.5 hPa Calm   1.6 km/h 74 % 0.0 mm
23:22 3.9 °C -0.1 °C 1019.5 hPa SW 1.6 km/h 1.6 km/h 75 % 0.0 mm
23:27 4.2 °C 0.0 °C 1019.5 hPa SSW 1.6 km/h 1.6 km/h 74 % 0.0 mm
23:32 4.2 °C -0.2 °C 1019.5 hPa Calm   1.6 km/h 73 % 0.0 mm
23:42 4.1 °C -0.1 °C 1019.5 hPa Calm   1.6 km/h 74 % 0.0 mm
23:47 4.0 °C -0.2 °C 1019.5 hPa Calm     74 % 0.0 mm
23:52 3.9 °C -0.1 °C 1019.5 hPa Calm     75 % 0.0 mm
23:57 3.8 °C -0.2 °C 1019.5 hPa Calm     75 % 0.0 mm
Meteo18
Compliments of Weather Underground - 4 mb

Script developed by  Jim McMurry - jmcmurry@mwt.net Adapted for the template by  Wim van der Kuil - Leuven-Template.eu

You find our weather info also at:

European Weather Network

Weather Underground

Equipment we use:

Weather-station
Davis Vue

Weather-program
Meteohub

Weather-server
Raspberry PI 2 B+

Provider
1 and 1

Davis Vue

Meteohub

Raspberry PI 2 B+

1 and 1